Buxton, Kansas
Current Conditions -  °F | °C
As of 11:52 PM on Thursday 30 Oct 2014 (Local Time) from KCNU Reporting Station
Clear Clear  
Wind Chill: 53°   Ceiling: Unl
Heat Index: 53°   Visibility: 10mi
Dew Point: 41°   Wind: 10mph
Humidity: 64%   Direction: 340°NNW
Pressure: 30.21"   Gusts: NA
Location:  37.5252°N, 95.8316°W
Report Text: KCNU 310452Z AUTO 34009KT 10SM CLR 12/05 A3021 RMK AO2 SLP227 T01170050
Loading
Personal Weather Stations






























Interactive Weather Map
Tropical Storm Tracking
New forecast layout! Learn more

10-Day Weather Forecast

Advertisements
Track Severe Weather on mobile